sensor_id;sensor_type;location;lat;lon;timestamp;P1;durP1;ratioP1;P2;durP2;ratioP2
76995;SDS011;65929;49.062;10.338;2024-03-23T00:54:16;9.13;;;6.15;;
76995;SDS011;65929;49.062;10.338;2024-03-23T00:55:17;8.27;;;5.78;;
76995;SDS011;65929;49.062;10.338;2024-03-23T00:56:18;9.15;;;5.30;;
76995;SDS011;65929;49.062;10.338;2024-03-23T00:57:19;9.48;;;5.72;;
76995;SDS011;65929;49.062;10.338;2024-03-23T00:58:19;11.45;;;6.20;;
76995;SDS011;65929;49.062;10.338;2024-03-23T00:59:20;9.93;;;6.05;;
76995;SDS011;65929;49.062;10.338;2024-03-23T01:00:22;8.38;;;5.38;;
76995;SDS011;65929;49.062;10.338;2024-03-23T01:01:24;8.80;;;5.03;;
76995;SDS011;65929;49.062;10.338;2024-03-23T01:02:25;8.85;;;5.57;;
76995;SDS011;65929;49.062;10.338;2024-03-23T01:03:26;8.30;;;5.03;;
76995;SDS011;65929;49.062;10.338;2024-03-23T01:04:27;8.20;;;5.22;;
76995;SDS011;65929;49.062;10.338;2024-03-23T01:05:27;10.55;;;5.90;;
76995;SDS011;65929;49.062;10.338;2024-03-23T01:06:28;9.80;;;5.50;;
76995;SDS011;65929;49.062;10.338;2024-03-23T01:07:31;7.93;;;5.25;;
76995;SDS011;65929;49.062;10.338;2024-03-23T01:08:32;10.82;;;5.30;;
76995;SDS011;65929;49.062;10.338;2024-03-23T01:09:33;7.60;;;5.15;;
76995;SDS011;65929;49.062;10.338;2024-03-23T01:10:34;9.20;;;6.63;;
76995;SDS011;65929;49.062;10.338;2024-03-23T01:11:35;9.95;;;6.10;;
76995;SDS011;65929;49.062;10.338;2024-03-23T01:12:35;8.27;;;5.57;;
76995;SDS011;65929;49.062;10.338;2024-03-23T01:13:36;8.32;;;4.93;;
76995;SDS011;65929;49.062;10.338;2024-03-23T01:14:37;8.68;;;5.07;;
76995;SDS011;65929;49.062;10.338;2024-03-23T01:15:38;9.15;;;5.35;;
76995;SDS011;65929;49.062;10.338;2024-03-23T01:16:39;8.60;;;5.88;;
76995;SDS011;65929;49.062;10.338;2024-03-23T01:17:40;8.77;;;4.95;;
76995;SDS011;65929;49.062;10.338;2024-03-23T01:18:41;8.18;;;5.15;;
76995;SDS011;65929;49.062;10.338;2024-03-23T01:19:41;8.00;;;5.40;;
76995;SDS011;65929;49.062;10.338;2024-03-23T01:20:42;9.05;;;5.72;;
76995;SDS011;65929;49.062;10.338;2024-03-23T01:21:43;7.63;;;4.88;;
76995;SDS011;65929;49.062;10.338;2024-03-23T01:22:45;9.07;;;5.18;;
76995;SDS011;65929;49.062;10.338;2024-03-23T01:23:46;9.40;;;5.13;;
76995;SDS011;65929;49.062;10.338;2024-03-23T01:24:47;8.25;;;5.13;;
76995;SDS011;65929;49.062;10.338;2024-03-23T01:25:51;7.60;;;5.10;;
76995;SDS011;65929;49.062;10.338;2024-03-23T01:26:53;6.70;;;4.65;;
76995;SDS011;65929;49.062;10.338;2024-03-23T01:27:54;7.35;;;4.68;;
76995;SDS011;65929;49.062;10.338;2024-03-23T01:28:55;8.15;;;4.70;;
76995;SDS011;65929;49.062;10.338;2024-03-23T01:29:56;7.80;;;5.13;;
76995;SDS011;65929;49.062;10.338;2024-03-23T01:30:57;7.85;;;4.50;;
76995;SDS011;65929;49.062;10.338;2024-03-23T01:31:58;6.95;;;4.88;;
76995;SDS011;65929;49.062;10.338;2024-03-23T01:32:59;8.00;;;5.07;;
76995;SDS011;65929;49.062;10.338;2024-03-23T01:34:00;7.28;;;4.40;;
76995;SDS011;65929;49.062;10.338;2024-03-23T01:35:00;8.43;;;4.80;;
76995;SDS011;65929;49.062;10.338;2024-03-23T01:36:01;8.10;;;4.68;;
76995;SDS011;65929;49.062;10.338;2024-03-23T01:37:03;6.55;;;4.25;;
76995;SDS011;65929;49.062;10.338;2024-03-23T01:38:06;7.78;;;4.70;;
76995;SDS011;65929;49.062;10.338;2024-03-23T01:39:07;5.90;;;4.70;;
76995;SDS011;65929;49.062;10.338;2024-03-23T01:40:09;7.82;;;4.47;;
76995;SDS011;65929;49.062;10.338;2024-03-23T01:41:13;7.45;;;4.07;;
76995;SDS011;65929;49.062;10.338;2024-03-23T01:42:14;6.50;;;4.30;;
76995;SDS011;65929;49.062;10.338;2024-03-23T01:43:15;7.53;;;4.25;;
76995;SDS011;65929;49.062;10.338;2024-03-23T01:44:16;6.82;;;4.50;;
76995;SDS011;65929;49.062;10.338;2024-03-23T01:45:17;7.53;;;4.30;;
76995;SDS011;65929;49.062;10.338;2024-03-23T01:46:18;6.95;;;4.93;;
76995;SDS011;65929;49.062;10.338;2024-03-23T01:47:19;9.82;;;5.57;;
76995;SDS011;65929;49.062;10.338;2024-03-23T01:48:20;6.55;;;4.60;;
76995;SDS011;65929;49.062;10.338;2024-03-23T01:49:21;6.45;;;4.80;;
76995;SDS011;65929;49.062;10.338;2024-03-23T01:50:22;5.70;;;4.32;;
76995;SDS011;65929;49.062;10.338;2024-03-23T01:51:26;6.85;;;4.55;;
76995;SDS011;65929;49.062;10.338;2024-03-23T01:52:29;8.38;;;4.20;;
76995;SDS011;65929;49.062;10.338;2024-03-23T01:53:31;6.78;;;3.80;;
76995;SDS011;65929;49.062;10.338;2024-03-23T01:54:32;7.10;;;3.97;;
76995;SDS011;65929;49.062;10.338;2024-03-23T01:55:33;7.20;;;4.35;;
76995;SDS011;65929;49.062;10.338;2024-03-23T01:56:34;6.03;;;3.83;;
76995;SDS011;65929;49.062;10.338;2024-03-23T01:57:35;6.25;;;4.30;;
76995;SDS011;65929;49.062;10.338;2024-03-23T01:58:37;6.50;;;4.05;;
76995;SDS011;65929;49.062;10.338;2024-03-23T01:59:38;7.07;;;3.83;;
76995;SDS011;65929;49.062;10.338;2024-03-23T02:00:38;7.30;;;4.20;;
76995;SDS011;65929;49.062;10.338;2024-03-23T02:01:39;7.63;;;4.15;;
76995;SDS011;65929;49.062;10.338;2024-03-23T02:02:42;4.82;;;4.00;;
76995;SDS011;65929;49.062;10.338;2024-03-23T02:03:46;6.20;;;3.80;;
76995;SDS011;65929;49.062;10.338;2024-03-23T02:04:48;4.88;;;3.75;;
76995;SDS011;65929;49.062;10.338;2024-03-23T02:05:49;5.55;;;3.85;;
76995;SDS011;65929;49.062;10.338;2024-03-23T02:06:51;6.38;;;4.07;;
76995;SDS011;65929;49.062;10.338;2024-03-23T02:07:52;5.50;;;4.07;;
76995;SDS011;65929;49.062;10.338;2024-03-23T02:08:54;6.55;;;4.53;;
76995;SDS011;65929;49.062;10.338;2024-03-23T02:09:55;6.95;;;3.67;;
76995;SDS011;65929;49.062;10.338;2024-03-23T02:10:56;7.32;;;4.07;;
76995;SDS011;65929;49.062;10.338;2024-03-23T02:11:58;5.50;;;3.92;;
76995;SDS011;65929;49.062;10.338;2024-03-23T02:13:02;6.97;;;4.60;;
76995;SDS011;65929;49.062;10.338;2024-03-23T02:14:03;6.00;;;4.70;;
76995;SDS011;65929;49.062;10.338;2024-03-23T02:15:04;5.28;;;4.07;;
76995;SDS011;65929;49.062;10.338;2024-03-23T02:16:06;5.18;;;3.75;;
76995;SDS011;65929;49.062;10.338;2024-03-23T02:17:07;6.80;;;4.10;;
76995;SDS011;65929;49.062;10.338;2024-03-23T02:18:09;6.05;;;4.05;;
76995;SDS011;65929;49.062;10.338;2024-03-23T02:19:10;5.70;;;4.28;;
76995;SDS011;65929;49.062;10.338;2024-03-23T02:20:12;6.85;;;3.88;;
76995;SDS011;65929;49.062;10.338;2024-03-23T02:21:13;5.50;;;3.80;;
76995;SDS011;65929;49.062;10.338;2024-03-23T02:22:13;6.13;;;3.95;;
76995;SDS011;65929;49.062;10.338;2024-03-23T02:23:17;8.10;;;4.28;;
76995;SDS011;65929;49.062;10.338;2024-03-23T02:24:18;6.15;;;4.13;;
76995;SDS011;65929;49.062;10.338;2024-03-23T02:25:19;5.70;;;3.90;;
76995;SDS011;65929;49.062;10.338;2024-03-23T02:26:20;6.57;;;4.35;;
76995;SDS011;65929;49.062;10.338;2024-03-23T02:27:21;5.63;;;4.15;;
76995;SDS011;65929;49.062;10.338;2024-03-23T02:28:21;7.07;;;4.60;;
76995;SDS011;65929;49.062;10.338;2024-03-23T02:29:22;6.25;;;4.25;;
76995;SDS011;65929;49.062;10.338;2024-03-23T02:30:23;7.47;;;4.80;;
76995;SDS011;65929;49.062;10.338;2024-03-23T02:31:24;6.15;;;4.00;;
76995;SDS011;65929;49.062;10.338;2024-03-23T02:32:25;7.53;;;4.75;;
76995;SDS011;65929;49.062;10.338;2024-03-23T02:33:26;7.22;;;4.60;;
76995;SDS011;65929;49.062;10.338;2024-03-23T02:34:27;6.18;;;4.35;;
76995;SDS011;65929;49.062;10.338;2024-03-23T02:35:28;7.22;;;4.65;;
76995;SDS011;65929;49.062;10.338;2024-03-23T02:36:29;8.07;;;4.70;;
76995;SDS011;65929;49.062;10.338;2024-03-23T02:37:31;7.00;;;4.53;;
76995;SDS011;65929;49.062;10.338;2024-03-23T02:38:33;7.43;;;4.97;;
76995;SDS011;65929;49.062;10.338;2024-03-23T02:39:34;6.15;;;4.25;;
76995;SDS011;65929;49.062;10.338;2024-03-23T02:40:35;7.60;;;4.95;;
76995;SDS011;65929;49.062;10.338;2024-03-23T02:41:37;5.03;;;3.97;;
76995;SDS011;65929;49.062;10.338;2024-03-23T02:42:38;9.00;;;6.07;;
76995;SDS011;65929;49.062;10.338;2024-03-23T02:43:38;9.40;;;5.55;;
76995;SDS011;65929;49.062;10.338;2024-03-23T02:44:39;10.60;;;6.10;;
76995;SDS011;65929;49.062;10.338;2024-03-23T02:45:40;10.25;;;5.80;;
76995;SDS011;65929;49.062;10.338;2024-03-23T02:46:41;9.80;;;5.70;;
76995;SDS011;65929;49.062;10.338;2024-03-23T02:47:42;8.13;;;5.88;;
76995;SDS011;65929;49.062;10.338;2024-03-23T02:48:43;10.10;;;6.45;;
76995;SDS011;65929;49.062;10.338;2024-03-23T02:49:44;8.32;;;5.35;;
76995;SDS011;65929;49.062;10.338;2024-03-23T02:50:45;8.27;;;5.32;;
76995;SDS011;65929;49.062;10.338;2024-03-23T02:51:46;7.70;;;5.70;;
76995;SDS011;65929;49.062;10.338;2024-03-23T02:52:48;7.85;;;5.03;;
76995;SDS011;65929;49.062;10.338;2024-03-23T02:53:50;8.52;;;4.80;;
76995;SDS011;65929;49.062;10.338;2024-03-23T02:54:51;7.03;;;4.70;;
76995;SDS011;65929;49.062;10.338;2024-03-23T02:55:52;6.90;;;4.93;;
76995;SDS011;65929;49.062;10.338;2024-03-23T02:56:53;6.93;;;4.70;;
76995;SDS011;65929;49.062;10.338;2024-03-23T02:57:54;10.90;;;5.30;;
76995;SDS011;65929;49.062;10.338;2024-03-23T02:58:56;8.57;;;4.65;;
76995;SDS011;65929;49.062;10.338;2024-03-23T02:59:57;7.43;;;5.28;;
76995;SDS011;65929;49.062;10.338;2024-03-23T03:00:57;7.18;;;5.20;;
76995;SDS011;65929;49.062;10.338;2024-03-23T03:01:58;9.45;;;5.18;;
76995;SDS011;65929;49.062;10.338;2024-03-23T03:03:00;9.05;;;5.40;;
76995;SDS011;65929;49.062;10.338;2024-03-23T03:04:01;6.90;;;5.35;;
76995;SDS011;65929;49.062;10.338;2024-03-23T03:05:01;7.22;;;5.13;;
76995;SDS011;65929;49.062;10.338;2024-03-23T03:06:05;8.35;;;5.40;;
76995;SDS011;65929;49.062;10.338;2024-03-23T03:07:05;8.90;;;5.35;;
76995;SDS011;65929;49.062;10.338;2024-03-23T03:08:06;8.35;;;5.32;;
76995;SDS011;65929;49.062;10.338;2024-03-23T03:09:09;8.38;;;5.53;;
76995;SDS011;65929;49.062;10.338;2024-03-23T03:10:09;8.48;;;5.68;;
76995;SDS011;65929;49.062;10.338;2024-03-23T03:11:11;8.82;;;5.80;;
76995;SDS011;65929;49.062;10.338;2024-03-23T03:12:12;8.95;;;5.70;;
76995;SDS011;65929;49.062;10.338;2024-03-23T03:13:12;8.32;;;5.93;;
76995;SDS011;65929;49.062;10.338;2024-03-23T03:14:13;9.68;;;5.68;;
76995;SDS011;65929;49.062;10.338;2024-03-23T03:15:14;9.85;;;5.75;;
76995;SDS011;65929;49.062;10.338;2024-03-23T03:16:15;9.23;;;5.57;;
76995;SDS011;65929;49.062;10.338;2024-03-23T03:17:16;8.10;;;5.55;;
76995;SDS011;65929;49.062;10.338;2024-03-23T03:18:17;6.95;;;4.32;;
76995;SDS011;65929;49.062;10.338;2024-03-23T03:19:18;9.55;;;5.63;;
76995;SDS011;65929;49.062;10.338;2024-03-23T03:20:19;6.85;;;4.72;;
76995;SDS011;65929;49.062;10.338;2024-03-23T03:21:22;7.97;;;5.22;;
76995;SDS011;65929;49.062;10.338;2024-03-23T03:22:22;7.38;;;4.90;;
76995;SDS011;65929;49.062;10.338;2024-03-23T03:23:24;9.52;;;5.55;;
76995;SDS011;65929;49.062;10.338;2024-03-23T03:24:26;9.82;;;5.65;;
76995;SDS011;65929;49.062;10.338;2024-03-23T03:25:27;9.50;;;5.53;;
76995;SDS011;65929;49.062;10.338;2024-03-23T03:26:28;8.48;;;6.15;;
76995;SDS011;65929;49.062;10.338;2024-03-23T03:27:28;8.38;;;5.43;;
76995;SDS011;65929;49.062;10.338;2024-03-23T03:28:29;10.13;;;6.00;;
76995;SDS011;65929;49.062;10.338;2024-03-23T03:29:31;8.55;;;6.18;;
76995;SDS011;65929;49.062;10.338;2024-03-23T03:30:35;9.20;;;6.40;;
76995;SDS011;65929;49.062;10.338;2024-03-23T03:31:36;9.45;;;5.55;;
76995;SDS011;65929;49.062;10.338;2024-03-23T03:32:37;10.38;;;6.35;;
76995;SDS011;65929;49.062;10.338;2024-03-23T03:33:38;8.68;;;6.40;;
76995;SDS011;65929;49.062;10.338;2024-03-23T03:34:39;9.10;;;5.57;;
76995;SDS011;65929;49.062;10.338;2024-03-23T03:35:39;8.07;;;6.13;;
76995;SDS011;65929;49.062;10.338;2024-03-23T03:36:40;8.77;;;5.47;;
76995;SDS011;65929;49.062;10.338;2024-03-23T03:37:41;6.32;;;4.47;;
76995;SDS011;65929;49.062;10.338;2024-03-23T03:38:42;8.23;;;5.00;;
76995;SDS011;65929;49.062;10.338;2024-03-23T03:39:44;4.82;;;3.60;;
76995;SDS011;65929;49.062;10.338;2024-03-23T03:40:45;6.18;;;4.07;;
76995;SDS011;65929;49.062;10.338;2024-03-23T03:41:46;7.15;;;3.65;;
76995;SDS011;65929;49.062;10.338;2024-03-23T03:42:47;5.82;;;3.55;;
76995;SDS011;65929;49.062;10.338;2024-03-23T03:43:49;4.57;;;3.00;;
76995;SDS011;65929;49.062;10.338;2024-03-23T03:44:50;5.50;;;2.97;;
76995;SDS011;65929;49.062;10.338;2024-03-23T03:45:52;18.42;;;9.43;;
76995;SDS011;65929;49.062;10.338;2024-03-23T03:46:53;9.07;;;5.18;;
76995;SDS011;65929;49.062;10.338;2024-03-23T03:47:54;12.02;;;7.35;;
76995;SDS011;65929;49.062;10.338;2024-03-23T03:48:55;9.13;;;5.93;;
76995;SDS011;65929;49.062;10.338;2024-03-23T03:49:55;9.52;;;5.55;;
76995;SDS011;65929;49.062;10.338;2024-03-23T03:50:56;7.63;;;4.68;;
76995;SDS011;65929;49.062;10.338;2024-03-23T03:51:57;7.63;;;4.40;;
76995;SDS011;65929;49.062;10.338;2024-03-23T03:52:58;8.15;;;4.88;;
76995;SDS011;65929;49.062;10.338;2024-03-23T03:53:59;7.80;;;4.85;;
76995;SDS011;65929;49.062;10.338;2024-03-23T03:55:02;8.45;;;5.55;;
76995;SDS011;65929;49.062;10.338;2024-03-23T03:56:04;10.55;;;5.45;;
76995;SDS011;65929;49.062;10.338;2024-03-23T03:57:05;7.32;;;5.00;;
76995;SDS011;65929;49.062;10.338;2024-03-23T03:58:06;8.40;;;5.28;;
76995;SDS011;65929;49.062;10.338;2024-03-23T03:59:06;7.63;;;5.05;;
76995;SDS011;65929;49.062;10.338;2024-03-23T04:02:08;28.25;;;10.73;;
76995;SDS011;65929;49.062;10.338;2024-03-23T04:03:09;86.30;;;30.77;;
76995;SDS011;65929;49.062;10.338;2024-03-23T04:04:10;106.93;;;35.70;;
76995;SDS011;65929;49.062;10.338;2024-03-23T04:05:11;44.70;;;16.70;;
76995;SDS011;65929;49.062;10.338;2024-03-23T04:06:18;17.33;;;8.82;;
76995;SDS011;65929;49.062;10.338;2024-03-23T04:07:19;117.97;;;39.20;;
76995;SDS011;65929;49.062;10.338;2024-03-23T04:08:22;72.03;;;28.45;;
76995;SDS011;65929;49.062;10.338;2024-03-23T04:09:24;39.65;;;17.48;;
76995;SDS011;65929;49.062;10.338;2024-03-23T04:10:26;42.25;;;16.48;;
76995;SDS011;65929;49.062;10.338;2024-03-23T04:11:27;67.18;;;26.05;;
76995;SDS011;65929;49.062;10.338;2024-03-23T04:12:28;77.82;;;28.00;;
76995;SDS011;65929;49.062;10.338;2024-03-23T04:13:29;67.50;;;23.83;;
76995;SDS011;65929;49.062;10.338;2024-03-23T04:14:29;67.93;;;25.33;;
76995;SDS011;65929;49.062;10.338;2024-03-23T04:15:30;6.30;;;3.92;;
76995;SDS011;65929;49.062;10.338;2024-03-23T04:16:33;5.95;;;3.35;;
76995;SDS011;65929;49.062;10.338;2024-03-23T04:17:35;4.72;;;3.20;;
76995;SDS011;65929;49.062;10.338;2024-03-23T04:18:36;4.60;;;2.75;;
76995;SDS011;65929;49.062;10.338;2024-03-23T04:19:37;4.70;;;3.15;;
76995;SDS011;65929;49.062;10.338;2024-03-23T04:20:38;5.85;;;2.88;;
76995;SDS011;65929;49.062;10.338;2024-03-23T04:21:39;5.22;;;3.25;;
76995;SDS011;65929;49.062;10.338;2024-03-23T04:22:40;3.67;;;2.78;;
76995;SDS011;65929;49.062;10.338;2024-03-23T04:23:41;6.30;;;3.40;;
76995;SDS011;65929;49.062;10.338;2024-03-23T04:24:42;6.53;;;3.42;;
76995;SDS011;65929;49.062;10.338;2024-03-23T04:25:45;5.35;;;3.63;;
76995;SDS011;65929;49.062;10.338;2024-03-23T04:26:45;5.50;;;4.18;;
76995;SDS011;65929;49.062;10.338;2024-03-23T04:27:47;5.13;;;3.72;;
76995;SDS011;65929;49.062;10.338;2024-03-23T04:28:48;10.63;;;4.03;;
76995;SDS011;65929;49.062;10.338;2024-03-23T04:29:49;5.88;;;3.97;;
76995;SDS011;65929;49.062;10.338;2024-03-23T04:30:50;4.85;;;3.50;;
76995;SDS011;65929;49.062;10.338;2024-03-23T04:31:51;5.95;;;3.42;;
76995;SDS011;65929;49.062;10.338;2024-03-23T04:32:52;6.95;;;3.40;;
76995;SDS011;65929;49.062;10.338;2024-03-23T04:33:52;5.28;;;3.22;;
76995;SDS011;65929;49.062;10.338;2024-03-23T04:34:54;6.32;;;3.47;;
76995;SDS011;65929;49.062;10.338;2024-03-23T04:35:54;4.57;;;2.65;;
76995;SDS011;65929;49.062;10.338;2024-03-23T04:36:56;3.33;;;2.47;;
76995;SDS011;65929;49.062;10.338;2024-03-23T04:37:57;3.50;;;2.65;;
76995;SDS011;65929;49.062;10.338;2024-03-23T04:38:59;4.30;;;2.53;;
76995;SDS011;65929;49.062;10.338;2024-03-23T04:40:00;4.00;;;2.30;;
76995;SDS011;65929;49.062;10.338;2024-03-23T04:41:03;3.75;;;2.70;;
76995;SDS011;65929;49.062;10.338;2024-03-23T04:42:04;3.70;;;2.55;;
76995;SDS011;65929;49.062;10.338;2024-03-23T04:43:05;3.10;;;2.30;;
76995;SDS011;65929;49.062;10.338;2024-03-23T04:44:06;4.28;;;2.55;;
76995;SDS011;65929;49.062;10.338;2024-03-23T04:45:08;7.15;;;2.92;;
76995;SDS011;65929;49.062;10.338;2024-03-23T04:46:09;2.88;;;2.50;;
76995;SDS011;65929;49.062;10.338;2024-03-23T04:47:09;4.55;;;2.78;;
76995;SDS011;65929;49.062;10.338;2024-03-23T04:48:11;4.68;;;3.28;;
76995;SDS011;65929;49.062;10.338;2024-03-23T04:49:12;6.13;;;2.53;;
76995;SDS011;65929;49.062;10.338;2024-03-23T04:50:12;2.70;;;2.20;;
76995;SDS011;65929;49.062;10.338;2024-03-23T04:51:20;2.97;;;2.45;;
76995;SDS011;65929;49.062;10.338;2024-03-23T04:52:21;3.45;;;3.08;;
76995;SDS011;65929;49.062;10.338;2024-03-23T04:53:22;3.13;;;2.60;;
76995;SDS011;65929;49.062;10.338;2024-03-23T04:54:28;2.85;;;2.28;;
76995;SDS011;65929;49.062;10.338;2024-03-23T04:55:29;5.38;;;2.30;;
76995;SDS011;65929;49.062;10.338;2024-03-23T04:56:32;3.88;;;2.08;;
76995;SDS011;65929;49.062;10.338;2024-03-23T04:57:33;3.03;;;1.98;;
76995;SDS011;65929;49.062;10.338;2024-03-23T04:58:34;4.22;;;2.30;;
76995;SDS011;65929;49.062;10.338;2024-03-23T04:59:35;4.88;;;2.80;;
76995;SDS011;65929;49.062;10.338;2024-03-23T05:00:39;6.47;;;3.70;;
76995;SDS011;65929;49.062;10.338;2024-03-23T05:01:39;4.68;;;3.13;;
76995;SDS011;65929;49.062;10.338;2024-03-23T05:02:42;5.03;;;2.75;;
76995;SDS011;65929;49.062;10.338;2024-03-23T05:03:44;4.75;;;2.70;;
76995;SDS011;65929;49.062;10.338;2024-03-23T05:04:45;27.35;;;14.50;;
76995;SDS011;65929;49.062;10.338;2024-03-23T05:05:46;12.32;;;7.05;;
76995;SDS011;65929;49.062;10.338;2024-03-23T05:06:47;8.15;;;3.58;;
76995;SDS011;65929;49.062;10.338;2024-03-23T05:07:48;4.72;;;3.00;;
76995;SDS011;65929;49.062;10.338;2024-03-23T05:08:49;5.35;;;2.80;;
76995;SDS011;65929;49.062;10.338;2024-03-23T05:09:50;5.38;;;2.83;;
76995;SDS011;65929;49.062;10.338;2024-03-23T05:10:53;4.85;;;3.05;;
76995;SDS011;65929;49.062;10.338;2024-03-23T05:11:56;4.53;;;2.97;;
76995;SDS011;65929;49.062;10.338;2024-03-23T05:12:57;4.78;;;2.30;;
76995;SDS011;65929;49.062;10.338;2024-03-23T05:13:58;4.07;;;2.83;;
76995;SDS011;65929;49.062;10.338;2024-03-23T05:14:59;4.60;;;2.58;;
76995;SDS011;65929;49.062;10.338;2024-03-23T05:16:00;4.68;;;2.53;;
76995;SDS011;65929;49.062;10.338;2024-03-23T05:17:01;5.40;;;2.85;;
76995;SDS011;65929;49.062;10.338;2024-03-23T05:18:03;4.13;;;2.65;;
76995;SDS011;65929;49.062;10.338;2024-03-23T05:19:05;4.50;;;2.88;;
76995;SDS011;65929;49.062;10.338;2024-03-23T05:20:06;5.13;;;2.85;;
76995;SDS011;65929;49.062;10.338;2024-03-23T05:21:12;4.05;;;2.38;;
76995;SDS011;65929;49.062;10.338;2024-03-23T05:22:13;5.18;;;2.90;;
76995;SDS011;65929;49.062;10.338;2024-03-23T05:23:14;4.50;;;2.90;;
76995;SDS011;65929;49.062;10.338;2024-03-23T05:24:15;4.38;;;2.83;;
76995;SDS011;65929;49.062;10.338;2024-03-23T05:25:16;3.90;;;2.72;;
76995;SDS011;65929;49.062;10.338;2024-03-23T05:26:17;3.85;;;2.80;;
76995;SDS011;65929;49.062;10.338;2024-03-23T05:27:19;3.47;;;2.85;;
76995;SDS011;65929;49.062;10.338;2024-03-23T05:28:20;4.28;;;2.75;;
76995;SDS011;65929;49.062;10.338;2024-03-23T05:29:22;4.28;;;2.88;;
76995;SDS011;65929;49.062;10.338;2024-03-23T05:30:22;3.47;;;2.60;;
76995;SDS011;65929;49.062;10.338;2024-03-23T05:31:23;3.53;;;3.13;;
76995;SDS011;65929;49.062;10.338;2024-03-23T05:32:24;4.65;;;2.88;;
76995;SDS011;65929;49.062;10.338;2024-03-23T05:33:26;5.90;;;3.13;;
76995;SDS011;65929;49.062;10.338;2024-03-23T05:34:27;4.18;;;2.92;;
76995;SDS011;65929;49.062;10.338;2024-03-23T05:35:29;7.93;;;3.45;;
76995;SDS011;65929;49.062;10.338;2024-03-23T05:36:29;4.80;;;2.90;;
76995;SDS011;65929;49.062;10.338;2024-03-23T05:37:32;4.20;;;2.90;;
76995;SDS011;65929;49.062;10.338;2024-03-23T05:38:34;4.22;;;3.10;;
76995;SDS011;65929;49.062;10.338;2024-03-23T05:39:35;4.85;;;3.30;;
76995;SDS011;65929;49.062;10.338;2024-03-23T05:40:36;4.60;;;2.80;;
76995;SDS011;65929;49.062;10.338;2024-03-23T05:41:40;3.70;;;2.65;;
76995;SDS011;65929;49.062;10.338;2024-03-23T05:42:42;4.35;;;3.08;;
76995;SDS011;65929;49.062;10.338;2024-03-23T05:43:43;4.28;;;3.00;;
76995;SDS011;65929;49.062;10.338;2024-03-23T05:44:44;3.20;;;2.08;;
76995;SDS011;65929;49.062;10.338;2024-03-23T05:45:45;5.75;;;2.85;;
76995;SDS011;65929;49.062;10.338;2024-03-23T05:46:46;4.95;;;2.80;;
76995;SDS011;65929;49.062;10.338;2024-03-23T05:47:48;6.63;;;3.05;;
76995;SDS011;65929;49.062;10.338;2024-03-23T05:48:50;6.38;;;3.83;;
76995;SDS011;65929;49.062;10.338;2024-03-23T05:49:51;6.25;;;3.30;;
76995;SDS011;65929;49.062;10.338;2024-03-23T05:50:52;4.15;;;2.97;;
76995;SDS011;65929;49.062;10.338;2024-03-23T05:51:53;6.57;;;3.10;;
76995;SDS011;65929;49.062;10.338;2024-03-23T05:52:55;5.75;;;3.75;;
76995;SDS011;65929;49.062;10.338;2024-03-23T05:53:56;8.07;;;4.07;;
76995;SDS011;65929;49.062;10.338;2024-03-23T05:54:57;12.00;;;4.15;;
76995;SDS011;65929;49.062;10.338;2024-03-23T05:56:01;7.82;;;4.15;;
76995;SDS011;65929;49.062;10.338;2024-03-23T05:57:05;10.13;;;4.80;;
76995;SDS011;65929;49.062;10.338;2024-03-23T05:58:10;9.93;;;5.10;;
76995;SDS011;65929;49.062;10.338;2024-03-23T05:59:11;7.57;;;4.10;;
76995;SDS011;65929;49.062;10.338;2024-03-23T06:00:12;8.55;;;4.70;;
76995;SDS011;65929;49.062;10.338;2024-03-23T06:01:20;10.98;;;5.45;;
76995;SDS011;65929;49.062;10.338;2024-03-23T06:02:21;9.30;;;5.13;;
76995;SDS011;65929;49.062;10.338;2024-03-23T06:03:22;9.15;;;5.55;;
76995;SDS011;65929;49.062;10.338;2024-03-23T06:04:23;8.95;;;5.15;;
76995;SDS011;65929;49.062;10.338;2024-03-23T06:05:24;8.18;;;5.38;;
76995;SDS011;65929;49.062;10.338;2024-03-23T06:06:25;11.88;;;5.22;;
76995;SDS011;65929;49.062;10.338;2024-03-23T06:07:26;11.23;;;6.47;;
76995;SDS011;65929;49.062;10.338;2024-03-23T06:08:27;12.07;;;6.00;;
76995;SDS011;65929;49.062;10.338;2024-03-23T06:09:28;11.43;;;5.88;;
76995;SDS011;65929;49.062;10.338;2024-03-23T06:10:31;13.35;;;6.20;;
76995;SDS011;65929;49.062;10.338;2024-03-23T06:11:32;13.07;;;6.35;;
76995;SDS011;65929;49.062;10.338;2024-03-23T06:12:33;13.25;;;6.28;;
76995;SDS011;65929;49.062;10.338;2024-03-23T06:13:35;12.70;;;5.82;;
76995;SDS011;65929;49.062;10.338;2024-03-23T06:14:36;14.20;;;6.35;;
76995;SDS011;65929;49.062;10.338;2024-03-23T06:15:37;10.23;;;5.63;;
76995;SDS011;65929;49.062;10.338;2024-03-23T06:16:38;13.27;;;6.60;;
76995;SDS011;65929;49.062;10.338;2024-03-23T06:17:39;11.15;;;5.70;;
76995;SDS011;65929;49.062;10.338;2024-03-23T06:18:40;9.18;;;5.63;;
76995;SDS011;65929;49.062;10.338;2024-03-23T06:19:41;11.13;;;6.13;;
76995;SDS011;65929;49.062;10.338;2024-03-23T06:20:42;10.07;;;6.20;;
76995;SDS011;65929;49.062;10.338;2024-03-23T06:21:43;8.13;;;4.68;;
76995;SDS011;65929;49.062;10.338;2024-03-23T06:22:44;8.98;;;4.75;;
76995;SDS011;65929;49.062;10.338;2024-03-23T06:23:45;11.10;;;5.25;;
76995;SDS011;65929;49.062;10.338;2024-03-23T06:24:51;9.48;;;4.80;;
76995;SDS011;65929;49.062;10.338;2024-03-23T06:25:52;12.90;;;6.05;;
76995;SDS011;65929;49.062;10.338;2024-03-23T06:26:53;10.77;;;5.28;;
76995;SDS011;65929;49.062;10.338;2024-03-23T06:27:54;11.23;;;4.80;;
76995;SDS011;65929;49.062;10.338;2024-03-23T06:28:56;10.13;;;5.50;;
76995;SDS011;65929;49.062;10.338;2024-03-23T06:29:57;10.43;;;5.43;;
76995;SDS011;65929;49.062;10.338;2024-03-23T06:30:58;9.48;;;4.65;;
76995;SDS011;65929;49.062;10.338;2024-03-23T06:32:01;12.52;;;5.72;;
76995;SDS011;65929;49.062;10.338;2024-03-23T06:33:03;12.27;;;6.35;;
76995;SDS011;65929;49.062;10.338;2024-03-23T06:34:05;9.63;;;5.47;;
76995;SDS011;65929;49.062;10.338;2024-03-23T06:35:06;10.45;;;5.20;;
76995;SDS011;65929;49.062;10.338;2024-03-23T06:36:10;12.20;;;5.40;;
76995;SDS011;65929;49.062;10.338;2024-03-23T06:37:11;10.65;;;5.30;;
76995;SDS011;65929;49.062;10.338;2024-03-23T06:38:12;9.90;;;5.35;;
76995;SDS011;65929;49.062;10.338;2024-03-23T06:39:13;11.50;;;5.10;;
76995;SDS011;65929;49.062;10.338;2024-03-23T06:40:15;9.80;;;4.72;;
76995;SDS011;65929;49.062;10.338;2024-03-23T06:41:16;7.85;;;5.55;;
76995;SDS011;65929;49.062;10.338;2024-03-23T06:42:17;7.82;;;4.72;;
76995;SDS011;65929;49.062;10.338;2024-03-23T06:43:18;11.73;;;4.80;;
76995;SDS011;65929;49.062;10.338;2024-03-23T06:44:20;7.90;;;3.85;;
76995;SDS011;65929;49.062;10.338;2024-03-23T06:45:21;7.38;;;4.38;;
76995;SDS011;65929;49.062;10.338;2024-03-23T06:46:23;5.90;;;3.28;;
76995;SDS011;65929;49.062;10.338;2024-03-23T06:47:24;8.13;;;4.32;;
76995;SDS011;65929;49.062;10.338;2024-03-23T06:48:25;6.90;;;4.32;;
76995;SDS011;65929;49.062;10.338;2024-03-23T06:49:26;8.43;;;4.55;;
76995;SDS011;65929;49.062;10.338;2024-03-23T06:50:27;8.25;;;3.30;;
76995;SDS011;65929;49.062;10.338;2024-03-23T06:51:28;8.40;;;4.50;;
76995;SDS011;65929;49.062;10.338;2024-03-23T06:52:29;7.00;;;3.63;;
76995;SDS011;65929;49.062;10.338;2024-03-23T06:53:30;6.53;;;3.28;;
76995;SDS011;65929;49.062;10.338;2024-03-23T06:54:31;5.75;;;3.00;;
76995;SDS011;65929;49.062;10.338;2024-03-23T06:55:32;5.78;;;3.03;;
76995;SDS011;65929;49.062;10.338;2024-03-23T06:56:33;6.00;;;3.35;;
76995;SDS011;65929;49.062;10.338;2024-03-23T06:57:34;4.78;;;2.97;;
76995;SDS011;65929;49.062;10.338;2024-03-23T06:58:35;6.40;;;3.65;;